sensor_id;sensor_type;location;lat;lon;timestamp;pressure;altitude;pressure_sealevel;temperature;humidity
46456;BME280;64052;47.466;9.094;2023-04-10T00:01:22;96206.84;;;8.34;51.79
46456;BME280;64052;47.466;9.094;2023-04-10T00:06:24;96197.78;;;8.38;51.17
46456;BME280;64052;47.466;9.094;2023-04-10T00:11:26;96208.09;;;8.41;51.32
46456;BME280;64052;47.466;9.094;2023-04-10T00:16:27;96198.88;;;8.35;51.37
46456;BME280;64052;47.466;9.094;2023-04-10T00:21:29;96206.97;;;8.19;51.47
46456;BME280;64052;47.466;9.094;2023-04-10T00:26:31;96200.28;;;8.15;51.61
46456;BME280;64052;47.466;9.094;2023-04-10T00:31:32;96194.06;;;8.16;52.05
46456;BME280;64052;47.466;9.094;2023-04-10T00:36:34;96189.63;;;8.16;52.28
46456;BME280;64052;47.466;9.094;2023-04-10T00:41:36;96181.38;;;7.84;50.62
46456;BME280;64052;47.466;9.094;2023-04-10T00:46:38;96184.50;;;7.63;51.47
46456;BME280;64052;47.466;9.094;2023-04-10T00:51:40;96181.25;;;7.47;51.23
46456;BME280;64052;47.466;9.094;2023-04-10T00:56:42;96178.94;;;7.42;52.59
46456;BME280;64052;47.466;9.094;2023-04-10T01:01:45;96176.41;;;7.40;52.72
46456;BME280;64052;47.466;9.094;2023-04-10T01:28:20;96184.84;;;7.45;52.08
46456;BME280;64052;47.466;9.094;2023-04-10T01:33:37;96185.47;;;7.49;52.28
46456;BME280;64052;47.466;9.094;2023-04-10T01:38:42;96182.09;;;7.60;52.21
46456;BME280;64052;47.466;9.094;2023-04-10T01:43:48;96178.94;;;7.42;51.67
46456;BME280;64052;47.466;9.094;2023-04-10T01:48:51;96177.44;;;7.25;51.94
46456;BME280;64052;47.466;9.094;2023-04-10T01:53:54;96176.63;;;7.24;52.19
46456;BME280;64052;47.466;9.094;2023-04-10T01:59:00;96175.03;;;7.22;51.20
46456;BME280;64052;47.466;9.094;2023-04-10T02:04:02;96174.38;;;7.05;51.33
46456;BME280;64052;47.466;9.094;2023-04-10T02:09:15;96172.88;;;7.01;51.78
46456;BME280;64052;47.466;9.094;2023-04-10T02:14:21;96175.75;;;7.11;51.55
46456;BME280;64052;47.466;9.094;2023-04-10T02:19:24;96172.41;;;7.22;51.85
46456;BME280;64052;47.466;9.094;2023-04-10T02:24:27;96180.38;;;7.20;51.49
46456;BME280;64052;47.466;9.094;2023-04-10T02:29:29;96178.47;;;7.09;52.33
46456;BME280;64052;47.466;9.094;2023-04-10T02:34:30;96170.94;;;7.17;52.31
46456;BME280;64052;47.466;9.094;2023-04-10T02:39:32;96179.44;;;7.21;51.86
46456;BME280;64052;47.466;9.094;2023-04-10T02:44:34;96176.50;;;7.13;52.63
46456;BME280;64052;47.466;9.094;2023-04-10T02:49:36;96172.69;;;7.04;52.37
46456;BME280;64052;47.466;9.094;2023-04-10T02:54:44;96175.94;;;7.08;52.35
46456;BME280;64052;47.466;9.094;2023-04-10T02:59:49;96177.00;;;7.05;52.12
46456;BME280;64052;47.466;9.094;2023-04-10T03:04:50;96167.63;;;7.01;52.55
46456;BME280;64052;47.466;9.094;2023-04-10T03:09:53;96169.38;;;6.87;52.28
46456;BME280;64052;47.466;9.094;2023-04-10T03:14:55;96169.38;;;6.87;52.75
46456;BME280;64052;47.466;9.094;2023-04-10T03:19:57;96163.69;;;6.81;52.19
46456;BME280;64052;47.466;9.094;2023-04-10T03:24:58;96175.63;;;6.72;52.42
46456;BME280;64052;47.466;9.094;2023-04-10T03:30:00;96180.44;;;6.65;53.07
46456;BME280;64052;47.466;9.094;2023-04-10T03:35:02;96189.22;;;6.64;52.84
46456;BME280;64052;47.466;9.094;2023-04-10T03:40:06;96186.50;;;6.66;53.38
46456;BME280;64052;47.466;9.094;2023-04-10T03:45:09;96181.06;;;6.69;52.86
46456;BME280;64052;47.466;9.094;2023-04-10T03:50:11;96189.22;;;6.64;52.85
46456;BME280;64052;47.466;9.094;2023-04-10T03:55:20;96192.19;;;6.45;51.62
46456;BME280;64052;47.466;9.094;2023-04-10T04:00:24;96184.81;;;6.37;51.95
46456;BME280;64052;47.466;9.094;2023-04-10T04:05:34;96180.59;;;6.35;52.61
46456;BME280;64052;47.466;9.094;2023-04-10T04:10:55;96189.72;;;6.42;53.44
46456;BME280;64052;47.466;9.094;2023-04-10T04:16:20;96179.16;;;6.43;53.70
46456;BME280;64052;47.466;9.094;2023-04-10T04:21:28;96192.56;;;6.24;54.28
46456;BME280;64052;47.466;9.094;2023-04-10T04:26:53;96192.34;;;6.56;53.52
46456;BME280;64052;47.466;9.094;2023-04-10T04:32:09;96185.00;;;6.61;52.30
46456;BME280;64052;47.466;9.094;2023-04-10T04:37:28;96185.06;;;6.47;52.67
46456;BME280;64052;47.466;9.094;2023-04-10T04:42:48;96179.19;;;6.29;51.81
46456;BME280;64052;47.466;9.094;2023-04-10T04:48:16;96180.22;;;5.97;52.47
46456;BME280;64052;47.466;9.094;2023-04-10T04:53:30;96183.41;;;6.17;52.80
46456;BME280;64052;47.466;9.094;2023-04-10T04:58:54;96182.84;;;6.26;53.26
46456;BME280;64052;47.466;9.094;2023-04-10T05:04:06;96183.88;;;6.38;52.90
46456;BME280;64052;47.466;9.094;2023-04-10T05:09:27;96191.44;;;6.43;53.19
46456;BME280;64052;47.466;9.094;2023-04-10T05:14:40;96187.91;;;6.57;52.67
46456;BME280;64052;47.466;9.094;2023-04-10T05:19:58;96190.66;;;6.41;53.58
46456;BME280;64052;47.466;9.094;2023-04-10T05:25:15;96188.63;;;6.46;53.41
46456;BME280;64052;47.466;9.094;2023-04-10T05:30:35;96177.13;;;6.49;52.75
46456;BME280;64052;47.466;9.094;2023-04-10T05:35:55;96183.38;;;6.46;52.91
46456;BME280;64052;47.466;9.094;2023-04-10T05:41:08;96192.91;;;6.47;52.87
46456;BME280;64052;47.466;9.094;2023-04-10T05:46:32;96197.28;;;6.61;53.00
46456;BME280;64052;47.466;9.094;2023-04-10T05:51:52;96203.59;;;6.71;52.82
46456;BME280;64052;47.466;9.094;2023-04-10T05:57:17;96192.31;;;6.84;53.12
46456;BME280;64052;47.466;9.094;2023-04-10T06:02:18;96195.59;;;6.87;53.42
46456;BME280;64052;47.466;9.094;2023-04-10T06:07:20;96199.31;;;6.98;53.34
46456;BME280;64052;47.466;9.094;2023-04-10T06:12:22;96204.31;;;7.28;52.12
46456;BME280;64052;47.466;9.094;2023-04-10T06:17:23;96208.88;;;7.52;53.21
46456;BME280;64052;47.466;9.094;2023-04-10T06:22:25;96211.81;;;7.73;52.36
46456;BME280;64052;47.466;9.094;2023-04-10T06:27:27;96208.56;;;8.09;52.58
46456;BME280;64052;47.466;9.094;2023-04-10T06:32:29;96203.31;;;8.22;52.00
46456;BME280;64052;47.466;9.094;2023-04-10T06:37:31;96194.22;;;8.39;51.98
46456;BME280;64052;47.466;9.094;2023-04-10T06:42:36;96194.00;;;8.55;51.31
46456;BME280;64052;47.466;9.094;2023-04-10T06:47:46;96197.03;;;8.62;51.69
46456;BME280;64052;47.466;9.094;2023-04-10T06:52:47;96196.13;;;8.74;51.77
46456;BME280;64052;47.466;9.094;2023-04-10T06:57:49;96190.03;;;8.98;51.46
46456;BME280;64052;47.466;9.094;2023-04-10T07:02:50;96185.16;;;9.05;52.23
46456;BME280;64052;47.466;9.094;2023-04-10T07:07:52;96185.16;;;9.29;51.96
46456;BME280;64052;47.466;9.094;2023-04-10T07:12:53;96186.19;;;9.51;52.53
46456;BME280;64052;47.466;9.094;2023-04-10T07:17:55;96184.41;;;9.74;52.48
46456;BME280;64052;47.466;9.094;2023-04-10T07:22:56;96185.25;;;9.86;51.68
46456;BME280;64052;47.466;9.094;2023-04-10T07:27:58;96187.28;;;9.94;51.94
46456;BME280;64052;47.466;9.094;2023-04-10T07:32:59;96187.19;;;9.95;51.74
46456;BME280;64052;47.466;9.094;2023-04-10T07:38:02;96181.94;;;10.18;51.85
46456;BME280;64052;47.466;9.094;2023-04-10T07:43:03;96177.00;;;10.36;52.38
46456;BME280;64052;47.466;9.094;2023-04-10T07:48:05;96176.03;;;10.60;52.24
46456;BME280;64052;47.466;9.094;2023-04-10T07:53:07;96165.25;;;10.96;52.02
46456;BME280;64052;47.466;9.094;2023-04-10T07:58:09;96181.06;;;11.07;51.52
46456;BME280;64052;47.466;9.094;2023-04-10T08:03:10;96167.31;;;11.25;51.32
46456;BME280;64052;47.466;9.094;2023-04-10T08:08:14;96170.88;;;11.57;51.72
46456;BME280;64052;47.466;9.094;2023-04-10T08:13:15;96163.00;;;11.66;52.00
46456;BME280;64052;47.466;9.094;2023-04-10T08:18:17;96163.38;;;11.83;50.97
46456;BME280;64052;47.466;9.094;2023-04-10T08:23:18;96168.66;;;12.04;51.19
46456;BME280;64052;47.466;9.094;2023-04-10T08:28:40;96166.25;;;12.22;49.75
46456;BME280;64052;47.466;9.094;2023-04-10T08:33:42;96171.69;;;12.31;51.13
46456;BME280;64052;47.466;9.094;2023-04-10T08:38:44;96167.63;;;12.27;51.23
46456;BME280;64052;47.466;9.094;2023-04-10T08:43:46;96167.47;;;12.69;50.56
46456;BME280;64052;47.466;9.094;2023-04-10T08:49:00;96173.78;;;12.88;50.22
46456;BME280;64052;47.466;9.094;2023-04-10T08:54:05;96161.94;;;13.02;49.83
46456;BME280;64052;47.466;9.094;2023-04-10T08:59:07;96163.59;;;13.32;49.87
46456;BME280;64052;47.466;9.094;2023-04-10T09:04:10;96153.59;;;13.56;51.12
46456;BME280;64052;47.466;9.094;2023-04-10T09:09:12;96153.53;;;13.85;51.34
46456;BME280;64052;47.466;9.094;2023-04-10T09:14:30;96151.78;;;14.04;50.36
46456;BME280;64052;47.466;9.094;2023-04-10T09:19:32;96156.53;;;14.38;51.49
46456;BME280;64052;47.466;9.094;2023-04-10T09:24:35;96158.25;;;14.57;48.80
46456;BME280;64052;47.466;9.094;2023-04-10T09:29:45;96163.72;;;14.84;49.57
46456;BME280;64052;47.466;9.094;2023-04-10T09:34:54;96149.47;;;15.03;48.13
46456;BME280;64052;47.466;9.094;2023-04-10T09:39:56;96139.06;;;14.92;47.92
46456;BME280;64052;47.466;9.094;2023-04-10T09:44:58;96140.56;;;15.30;46.97
46456;BME280;64052;47.466;9.094;2023-04-10T09:50:01;96124.59;;;15.49;46.36
46456;BME280;64052;47.466;9.094;2023-04-10T09:55:06;96120.81;;;15.78;44.70
46456;BME280;64052;47.466;9.094;2023-04-10T10:00:08;96116.75;;;15.92;43.48
46456;BME280;64052;47.466;9.094;2023-04-10T10:05:10;96113.81;;;15.95;43.78
46456;BME280;64052;47.466;9.094;2023-04-10T10:10:12;96105.28;;;16.26;41.33
46456;BME280;64052;47.466;9.094;2023-04-10T10:20:31;96086.22;;;16.47;42.82
46456;BME280;64052;47.466;9.094;2023-04-10T10:25:37;96088.50;;;16.93;41.24
46456;BME280;64052;47.466;9.094;2023-04-10T10:30:39;96073.38;;;17.27;40.87
46456;BME280;64052;47.466;9.094;2023-04-10T10:35:41;96070.53;;;17.45;37.63
46456;BME280;64052;47.466;9.094;2023-04-10T10:50:59;96063.06;;;18.05;36.95
46456;BME280;64052;47.466;9.094;2023-04-10T11:01:21;96036.66;;;18.19;37.32
46456;BME280;64052;47.466;9.094;2023-04-10T11:06:48;96033.06;;;18.03;35.78
46456;BME280;64052;47.466;9.094;2023-04-10T11:11:56;96019.19;;;18.08;36.60
46456;BME280;64052;47.466;9.094;2023-04-10T11:16:58;96014.31;;;18.20;36.91
46456;BME280;64052;47.466;9.094;2023-04-10T11:22:01;96006.94;;;18.22;35.93
46456;BME280;64052;47.466;9.094;2023-04-10T11:27:03;96002.66;;;18.44;36.33
46456;BME280;64052;47.466;9.094;2023-04-10T11:32:04;96003.78;;;18.50;34.82
46456;BME280;64052;47.466;9.094;2023-04-10T11:37:06;96010.63;;;18.52;36.75
46456;BME280;64052;47.466;9.094;2023-04-10T11:42:08;96005.41;;;18.59;35.13
46456;BME280;64052;47.466;9.094;2023-04-10T11:47:11;95996.28;;;18.92;34.93
46456;BME280;64052;47.466;9.094;2023-04-10T11:52:23;95998.09;;;19.00;34.90
46456;BME280;64052;47.466;9.094;2023-04-10T11:57:33;95996.66;;;19.12;35.01
46456;BME280;64052;47.466;9.094;2023-04-10T12:02:48;95985.34;;;19.25;34.29
46456;BME280;64052;47.466;9.094;2023-04-10T12:07:50;95984.63;;;19.46;33.85
46456;BME280;64052;47.466;9.094;2023-04-10T12:12:52;95983.53;;;19.56;34.73
46456;BME280;64052;47.466;9.094;2023-04-10T12:17:54;95978.91;;;19.64;34.19
46456;BME280;64052;47.466;9.094;2023-04-10T12:22:56;95973.84;;;19.55;34.53
46456;BME280;64052;47.466;9.094;2023-04-10T12:27:57;95972.75;;;19.64;35.42
46456;BME280;64052;47.466;9.094;2023-04-10T12:32:59;95971.06;;;19.63;33.40
46456;BME280;64052;47.466;9.094;2023-04-10T12:38:01;95962.56;;;19.89;35.18
46456;BME280;64052;47.466;9.094;2023-04-10T12:43:02;95962.66;;;19.96;34.92
46456;BME280;64052;47.466;9.094;2023-04-10T12:48:04;95959.91;;;20.04;34.10
46456;BME280;64052;47.466;9.094;2023-04-10T12:53:06;95955.94;;;20.00;33.89
46456;BME280;64052;47.466;9.094;2023-04-10T12:58:17;95942.81;;;19.75;34.75
46456;BME280;64052;47.466;9.094;2023-04-10T13:03:19;95939.91;;;20.00;34.57
46456;BME280;64052;47.466;9.094;2023-04-10T13:08:21;95936.06;;;20.10;33.64
46456;BME280;64052;47.466;9.094;2023-04-10T13:13:23;95933.84;;;20.13;33.59
46456;BME280;64052;47.466;9.094;2023-04-10T13:18:24;95931.00;;;20.15;32.74
46456;BME280;64052;47.466;9.094;2023-04-10T13:23:26;95922.22;;;20.06;33.28
46456;BME280;64052;47.466;9.094;2023-04-10T13:28:27;95914.56;;;19.88;33.11
46456;BME280;64052;47.466;9.094;2023-04-10T13:33:29;95911.91;;;20.03;33.01
46456;BME280;64052;47.466;9.094;2023-04-10T13:38:30;95906.84;;;20.08;34.12
46456;BME280;64052;47.466;9.094;2023-04-10T13:43:32;95906.13;;;20.21;32.08
46456;BME280;64052;47.466;9.094;2023-04-10T13:48:33;95887.66;;;20.26;30.68
46456;BME280;64052;47.466;9.094;2023-04-10T13:53:41;95886.56;;;20.20;29.57
46456;BME280;64052;47.466;9.094;2023-04-10T13:58:44;95890.56;;;20.10;30.09
46456;BME280;64052;47.466;9.094;2023-04-10T14:03:46;95898.22;;;20.13;30.17
46456;BME280;64052;47.466;9.094;2023-04-10T14:08:48;95886.16;;;20.02;30.56
46456;BME280;64052;47.466;9.094;2023-04-10T14:13:49;95887.81;;;19.88;30.28
46456;BME280;64052;47.466;9.094;2023-04-10T14:18:51;95879.94;;;19.64;30.71
46456;BME280;64052;47.466;9.094;2023-04-10T14:23:52;95875.91;;;19.90;31.46
46456;BME280;64052;47.466;9.094;2023-04-10T14:28:54;95871.97;;;20.01;30.65
46456;BME280;64052;47.466;9.094;2023-04-10T14:33:56;95865.59;;;20.02;30.62
46456;BME280;64052;47.466;9.094;2023-04-10T14:38:57;95871.13;;;19.86;31.89
46456;BME280;64052;47.466;9.094;2023-04-10T14:43:59;95862.53;;;19.90;32.26
46456;BME280;64052;47.466;9.094;2023-04-10T14:49:00;95849.09;;;19.99;31.68
46456;BME280;64052;47.466;9.094;2023-04-10T14:54:02;95859.47;;;20.08;31.98
46456;BME280;64052;47.466;9.094;2023-04-10T14:59:03;95861.91;;;19.88;30.32
46456;BME280;64052;47.466;9.094;2023-04-10T15:04:05;95850.97;;;19.83;30.04
46456;BME280;64052;47.466;9.094;2023-04-10T15:09:07;95841.53;;;19.87;30.12
46456;BME280;64052;47.466;9.094;2023-04-10T15:14:08;95837.38;;;19.85;29.78
46456;BME280;64052;47.466;9.094;2023-04-10T15:19:10;95831.63;;;19.88;30.12
46456;BME280;64052;47.466;9.094;2023-04-10T15:24:11;95829.41;;;19.91;30.31
46456;BME280;64052;47.466;9.094;2023-04-10T15:29:13;95829.56;;;19.83;30.70
46456;BME280;64052;47.466;9.094;2023-04-10T15:34:14;95826.91;;;19.68;29.70
46456;BME280;64052;47.466;9.094;2023-04-10T15:39:16;95820.78;;;19.52;30.43
46456;BME280;64052;47.466;9.094;2023-04-10T15:44:17;95825.28;;;19.52;30.97
46456;BME280;64052;47.466;9.094;2023-04-10T15:49:19;95816.47;;;19.51;32.84
46456;BME280;64052;47.466;9.094;2023-04-10T15:54:38;95817.97;;;19.39;32.47
46456;BME280;64052;47.466;9.094;2023-04-10T15:59:39;95815.00;;;19.34;33.23
46456;BME280;64052;47.466;9.094;2023-04-10T16:04:41;95811.44;;;19.27;33.26
46456;BME280;64052;47.466;9.094;2023-04-10T16:09:42;95807.75;;;19.13;28.11
46456;BME280;64052;47.466;9.094;2023-04-10T16:14:44;95802.31;;;19.21;28.67
46456;BME280;64052;47.466;9.094;2023-04-10T16:19:45;95789.34;;;19.03;28.45
46456;BME280;64052;47.466;9.094;2023-04-10T16:24:47;95788.59;;;19.09;28.73
46456;BME280;64052;47.466;9.094;2023-04-10T16:29:49;95785.84;;;19.02;26.62
46456;BME280;64052;47.466;9.094;2023-04-10T16:34:50;95785.06;;;18.78;27.76
46456;BME280;64052;47.466;9.094;2023-04-10T16:39:52;95790.50;;;18.85;28.93
46456;BME280;64052;47.466;9.094;2023-04-10T16:44:53;95780.19;;;18.82;28.60
46456;BME280;64052;47.466;9.094;2023-04-10T16:49:55;95779.09;;;18.76;29.25
46456;BME280;64052;47.466;9.094;2023-04-10T16:54:56;95774.13;;;18.73;28.75
46456;BME280;64052;47.466;9.094;2023-04-10T16:59:58;95777.72;;;18.65;29.11
46456;BME280;64052;47.466;9.094;2023-04-10T17:04:59;95765.09;;;18.59;28.97
46456;BME280;64052;47.466;9.094;2023-04-10T17:10:01;95772.25;;;18.44;29.70
46456;BME280;64052;47.466;9.094;2023-04-10T17:15:03;95754.38;;;18.44;30.26
46456;BME280;64052;47.466;9.094;2023-04-10T17:20:05;95766.66;;;18.53;30.74
46456;BME280;64052;47.466;9.094;2023-04-10T17:25:07;95771.06;;;18.46;31.19
46456;BME280;64052;47.466;9.094;2023-04-10T17:30:10;95762.75;;;18.41;31.62
46456;BME280;64052;47.466;9.094;2023-04-10T17:35:12;95766.28;;;18.42;32.12
46456;BME280;64052;47.466;9.094;2023-04-10T17:40:13;95765.16;;;18.36;32.27
46456;BME280;64052;47.466;9.094;2023-04-10T17:45:15;95762.47;;;18.21;32.97
46456;BME280;64052;47.466;9.094;2023-04-10T17:50:16;95758.19;;;18.11;35.78
46456;BME280;64052;47.466;9.094;2023-04-10T17:55:18;95760.34;;;17.93;36.10
46456;BME280;64052;47.466;9.094;2023-04-10T18:00:21;95755.84;;;17.70;38.10
46456;BME280;64052;47.466;9.094;2023-04-10T18:05:23;95751.81;;;17.51;37.69
46456;BME280;64052;47.466;9.094;2023-04-10T18:10:24;95765.28;;;17.26;40.80
46456;BME280;64052;47.466;9.094;2023-04-10T18:15:27;95756.91;;;16.97;40.05
46456;BME280;64052;47.466;9.094;2023-04-10T18:20:28;95753.47;;;16.80;39.61
46456;BME280;64052;47.466;9.094;2023-04-10T18:25:30;95752.34;;;16.75;39.59
46456;BME280;64052;47.466;9.094;2023-04-10T18:30:31;95748.03;;;16.65;40.30
46456;BME280;64052;47.466;9.094;2023-04-10T18:35:33;95744.06;;;16.61;41.30
46456;BME280;64052;47.466;9.094;2023-04-10T18:40:34;95754.72;;;16.53;40.72
46456;BME280;64052;47.466;9.094;2023-04-10T18:45:36;95757.22;;;16.46;41.17
46456;BME280;64052;47.466;9.094;2023-04-10T18:50:37;95749.75;;;16.50;41.12
46456;BME280;64052;47.466;9.094;2023-04-10T18:55:39;95749.25;;;16.46;40.33
46456;BME280;64052;47.466;9.094;2023-04-10T19:00:41;95755.22;;;16.48;41.63
46456;BME280;64052;47.466;9.094;2023-04-10T19:05:43;95759.38;;;16.51;41.00
46456;BME280;64052;47.466;9.094;2023-04-10T19:10:44;95758.88;;;16.55;41.49
46456;BME280;64052;47.466;9.094;2023-04-10T19:15:46;95759.53;;;16.57;41.50
46456;BME280;64052;47.466;9.094;2023-04-10T19:20:48;95754.41;;;16.48;41.76
46456;BME280;64052;47.466;9.094;2023-04-10T19:25:53;95746.47;;;16.31;42.93
46456;BME280;64052;47.466;9.094;2023-04-10T19:30:55;95763.59;;;16.28;43.71
46456;BME280;64052;47.466;9.094;2023-04-10T19:35:57;95774.44;;;16.19;44.08
46456;BME280;64052;47.466;9.094;2023-04-10T19:40:58;95779.25;;;16.15;43.90
46456;BME280;64052;47.466;9.094;2023-04-10T19:46:00;95776.59;;;16.15;42.83
46456;BME280;64052;47.466;9.094;2023-04-10T19:51:02;95780.56;;;16.19;42.41
46456;BME280;64052;47.466;9.094;2023-04-10T19:56:05;95772.28;;;16.14;42.45
46456;BME280;64052;47.466;9.094;2023-04-10T20:01:06;95766.91;;;16.22;42.28
46456;BME280;64052;47.466;9.094;2023-04-10T20:06:08;95768.06;;;16.28;41.59
46456;BME280;64052;47.466;9.094;2023-04-10T20:11:10;95770.44;;;16.23;41.29
46456;BME280;64052;47.466;9.094;2023-04-10T20:16:11;95762.59;;;16.21;41.36
46456;BME280;64052;47.466;9.094;2023-04-10T20:21:13;95765.91;;;16.23;41.67
46456;BME280;64052;47.466;9.094;2023-04-10T20:26:16;95767.41;;;16.26;42.05
46456;BME280;64052;47.466;9.094;2023-04-10T20:31:17;95765.75;;;16.16;42.32
46456;BME280;64052;47.466;9.094;2023-04-10T20:36:19;95777.91;;;16.11;42.53
46456;BME280;64052;47.466;9.094;2023-04-10T20:41:21;95779.59;;;16.12;42.11
46456;BME280;64052;47.466;9.094;2023-04-10T20:46:25;95776.09;;;16.20;42.61
46456;BME280;64052;47.466;9.094;2023-04-10T20:51:26;95789.88;;;16.15;43.59
46456;BME280;64052;47.466;9.094;2023-04-10T20:56:28;95798.38;;;16.19;44.59
46456;BME280;64052;47.466;9.094;2023-04-10T21:01:43;95819.63;;;16.10;44.31
46456;BME280;64052;47.466;9.094;2023-04-10T21:06:45;95798.84;;;16.06;44.89
46456;BME280;64052;47.466;9.094;2023-04-10T21:11:46;95805.34;;;15.95;43.94
46456;BME280;64052;47.466;9.094;2023-04-10T21:16:48;95806.34;;;15.94;43.40
46456;BME280;64052;47.466;9.094;2023-04-10T21:21:49;95800.19;;;15.93;43.17
46456;BME280;64052;47.466;9.094;2023-04-10T21:26:51;95802.38;;;16.06;44.93
46456;BME280;64052;47.466;9.094;2023-04-10T21:31:52;95802.34;;;16.14;44.56
46456;BME280;64052;47.466;9.094;2023-04-10T21:36:54;95814.13;;;16.20;44.67
46456;BME280;64052;47.466;9.094;2023-04-10T21:41:55;95812.13;;;16.22;42.92
46456;BME280;64052;47.466;9.094;2023-04-10T21:46:57;95796.38;;;16.21;42.27
46456;BME280;64052;47.466;9.094;2023-04-10T21:51:58;95787.38;;;16.22;42.16
46456;BME280;64052;47.466;9.094;2023-04-10T21:57:00;95785.03;;;16.27;42.17
46456;BME280;64052;47.466;9.094;2023-04-10T22:02:01;95778.06;;;16.26;42.18
46456;BME280;64052;47.466;9.094;2023-04-10T22:07:03;95764.91;;;16.41;41.74
46456;BME280;64052;47.466;9.094;2023-04-10T22:12:06;95763.41;;;16.47;40.81
46456;BME280;64052;47.466;9.094;2023-04-10T22:17:07;95749.41;;;16.53;41.00
46456;BME280;64052;47.466;9.094;2023-04-10T22:22:09;95739.44;;;16.47;40.58
46456;BME280;64052;47.466;9.094;2023-04-10T22:27:10;95743.41;;;16.51;40.49
46456;BME280;64052;47.466;9.094;2023-04-10T22:32:12;95722.97;;;16.51;40.10
46456;BME280;64052;47.466;9.094;2023-04-10T22:37:13;95707.81;;;16.52;40.14
46456;BME280;64052;47.466;9.094;2023-04-10T22:42:15;95709.81;;;16.58;39.79
46456;BME280;64052;47.466;9.094;2023-04-10T22:47:16;95709.47;;;16.61;39.61
46456;BME280;64052;47.466;9.094;2023-04-10T22:52:18;95679.66;;;16.66;38.69
46456;BME280;64052;47.466;9.094;2023-04-10T22:57:19;95675.88;;;16.60;37.14
46456;BME280;64052;47.466;9.094;2023-04-10T23:02:20;95662.94;;;16.80;37.41
46456;BME280;64052;47.466;9.094;2023-04-10T23:07:23;95650.13;;;16.84;36.79
46456;BME280;64052;47.466;9.094;2023-04-10T23:12:25;95650.59;;;16.88;36.34
46456;BME280;64052;47.466;9.094;2023-04-10T23:17:26;95648.25;;;16.93;36.90
46456;BME280;64052;47.466;9.094;2023-04-10T23:22:28;95648.06;;;16.94;35.93
46456;BME280;64052;47.466;9.094;2023-04-10T23:27:29;95643.63;;;16.86;35.67
46456;BME280;64052;47.466;9.094;2023-04-10T23:32:31;95633.53;;;16.74;35.68
46456;BME280;64052;47.466;9.094;2023-04-10T23:37:32;95627.84;;;16.77;35.77
46456;BME280;64052;47.466;9.094;2023-04-10T23:42:34;95607.63;;;16.67;35.88
46456;BME280;64052;47.466;9.094;2023-04-10T23:47:35;95587.66;;;16.63;35.02
46456;BME280;64052;47.466;9.094;2023-04-10T23:52:37;95564.97;;;16.76;34.59
46456;BME280;64052;47.466;9.094;2023-04-10T23:57:38;95540.66;;;16.79;34.18
